createdAt,value
2017-10-10T00:00:38.471Z,23.40
2017-10-10T00:03:06.631Z,22.23
2017-10-10T00:05:35.733Z,26.00
2017-10-10T00:08:04.187Z,22.37
2017-10-10T00:10:33.845Z,19.70
2017-10-10T00:13:06.068Z,16.10
2017-10-10T00:15:37.443Z,14.00
2017-10-10T00:18:07.019Z,12.87
2017-10-10T00:20:35.957Z,14.60
2017-10-10T00:23:05.117Z,14.90
2017-10-10T00:25:33.294Z,13.90
2017-10-10T00:28:02.360Z,13.90
2017-10-10T00:30:31.788Z,11.67
2017-10-10T00:32:59.909Z,13.73
2017-10-10T00:35:28.821Z,13.03
2017-10-10T00:37:57.580Z,12.53
2017-10-10T00:40:26.672Z,10.47
2017-10-10T00:42:54.813Z,11.70
2017-10-10T00:45:22.966Z,13.27
2017-10-10T00:47:51.092Z,14.03
2017-10-10T00:50:19.987Z,10.73
2017-10-10T00:52:50.979Z,12.17
2017-10-10T00:55:20.250Z,14.10
2017-10-10T00:57:48.410Z,12.10
2017-10-10T01:00:17.305Z,10.27
2017-10-10T01:02:46.473Z,11.00
2017-10-10T01:05:14.613Z,15.20
2017-10-10T01:07:42.720Z,13.13
2017-10-10T01:10:11.244Z,11.80
2017-10-10T01:12:39.371Z,10.77
2017-10-10T01:15:07.508Z,11.60
2017-10-10T01:17:35.644Z,12.13
2017-10-10T01:20:04.522Z,14.67
2017-10-10T01:22:33.443Z,9.83
2017-10-10T01:25:01.568Z,10.37
2017-10-10T01:27:29.691Z,12.83
2017-10-10T01:29:57.810Z,10.73
2017-10-10T01:32:25.944Z,11.00
2017-10-10T01:34:54.062Z,9.57
2017-10-10T01:37:23.321Z,10.70
2017-10-10T01:39:51.445Z,12.13
2017-10-10T01:42:19.593Z,15.70
2017-10-10T01:44:47.711Z,13.40
2017-10-10T01:47:16.947Z,13.73
2017-10-10T01:49:45.068Z,12.20
2017-10-10T01:52:13.971Z,13.40
2017-10-10T01:54:42.090Z,11.93
2017-10-10T01:57:10.234Z,11.87
2017-10-10T01:59:38.346Z,11.90
2017-10-10T02:02:06.523Z,11.80
2017-10-10T02:04:34.642Z,11.70
2017-10-10T02:07:02.782Z,14.00
2017-10-10T02:09:30.890Z,11.57
2017-10-10T02:11:59.011Z,10.03
2017-10-10T02:14:27.155Z,9.20
2017-10-10T02:16:55.296Z,6.47
2017-10-10T02:19:24.163Z,6.33
2017-10-10T02:21:52.303Z,8.23
2017-10-10T02:24:20.404Z,4.67
2017-10-10T02:26:48.514Z,5.93
2017-10-10T02:29:16.636Z,5.00
2017-10-10T02:31:44.750Z,3.80
2017-10-10T02:34:13.647Z,3.87
2017-10-10T02:36:42.538Z,4.13
2017-10-10T02:39:11.430Z,4.63
2017-10-10T02:41:39.545Z,4.30
2017-10-10T02:44:09.732Z,5.57
2017-10-10T02:46:38.287Z,6.43
2017-10-10T02:49:06.424Z,5.50
2017-10-10T02:51:34.524Z,5.57
2017-10-10T02:54:02.686Z,8.17
2017-10-10T02:56:31.681Z,7.23
2017-10-10T02:58:59.827Z,8.63
2017-10-10T03:01:27.936Z,8.30
2017-10-10T03:03:56.055Z,8.07
2017-10-10T03:06:24.153Z,8.40
2017-10-10T03:08:52.271Z,7.93
2017-10-10T03:11:21.149Z,8.97
2017-10-10T03:13:49.291Z,8.87
2017-10-10T03:16:17.426Z,11.50
2017-10-10T03:18:45.562Z,11.50
2017-10-10T03:21:14.758Z,12.67
2017-10-10T03:23:42.915Z,14.63
2017-10-10T03:26:11.038Z,14.87
2017-10-10T03:28:39.190Z,16.00
2017-10-10T03:31:08.081Z,15.80
2017-10-10T03:33:36.966Z,16.60
2017-10-10T03:36:05.138Z,15.60
2017-10-10T03:38:33.260Z,21.43
2017-10-10T03:41:01.415Z,17.93
2017-10-10T03:43:29.585Z,15.40
2017-10-10T03:45:58.503Z,21.50
2017-10-10T03:48:26.608Z,16.83
2017-10-10T03:50:54.742Z,18.67
2017-10-10T03:53:22.860Z,29.47
2017-10-10T03:55:52.035Z,16.20
2017-10-10T03:58:20.170Z,22.10
2017-10-10T04:00:48.752Z,21.20
2017-10-10T04:03:17.908Z,30.27
2017-10-10T04:05:46.057Z,19.20
2017-10-10T04:08:14.178Z,21.70
2017-10-10T04:10:43.085Z,20.37
2017-10-10T04:13:11.598Z,21.53
2017-10-10T04:15:40.953Z,21.02
2017-10-10T04:18:12.217Z,20.70
2017-10-10T04:20:40.373Z,21.97
2017-10-10T04:23:09.257Z,27.93
2017-10-10T04:25:38.176Z,22.17
2017-10-10T04:28:06.295Z,25.40
2017-10-10T04:30:34.930Z,28.10
2017-10-10T04:33:03.042Z,25.70
2017-10-10T04:35:31.916Z,25.87
2017-10-10T04:38:00.049Z,25.70
2017-10-10T04:40:28.958Z,27.80
2017-10-10T04:42:57.092Z,27.67
2017-10-10T04:45:25.211Z,28.93
2017-10-10T04:47:53.370Z,27.23
2017-10-10T04:50:22.258Z,30.37
2017-10-10T04:52:51.181Z,30.63
2017-10-10T04:55:19.321Z,32.00
2017-10-10T04:57:48.250Z,32.63
2017-10-10T05:00:16.368Z,33.87
2017-10-10T05:02:44.540Z,34.57
2017-10-10T05:05:12.657Z,32.03
2017-10-10T05:07:40.806Z,33.03
2017-10-10T05:10:09.719Z,37.30
2017-10-10T05:12:37.889Z,34.23
2017-10-10T05:15:06.014Z,36.57
2017-10-10T05:17:35.293Z,37.10
2017-10-10T05:20:04.881Z,40.30
2017-10-10T05:22:33.024Z,38.73
2017-10-10T05:25:01.924Z,38.60
2017-10-10T05:27:30.857Z,40.87
2017-10-10T05:30:00.227Z,37.43
2017-10-10T05:32:30.502Z,36.67
2017-10-10T05:34:58.624Z,36.17
2017-10-10T05:37:28.783Z,46.47
2017-10-10T05:39:56.899Z,34.50
2017-10-10T05:42:25.835Z,37.87
2017-10-10T05:44:54.365Z,40.30
2017-10-10T05:47:22.483Z,40.40
2017-10-10T05:49:51.536Z,39.33
2017-10-10T05:52:20.436Z,41.17
2017-10-10T05:54:49.345Z,44.40
2017-10-10T05:57:17.479Z,44.93
2017-10-10T05:59:47.666Z,39.00
2017-10-10T06:02:15.805Z,33.93
2017-10-10T06:04:44.312Z,33.63
2017-10-10T06:07:12.426Z,32.47
2017-10-10T06:09:40.584Z,36.33
2017-10-10T06:12:08.717Z,37.67
2017-10-10T06:14:36.865Z,35.07
2017-10-10T06:17:06.627Z,39.90
2017-10-10T06:19:38.053Z,33.27
2017-10-10T06:22:07.047Z,38.47
2017-10-10T06:24:35.197Z,35.20
2017-10-10T06:27:04.089Z,36.07
2017-10-10T06:29:34.975Z,33.53
2017-10-10T06:32:04.743Z,41.90
2017-10-10T06:34:33.671Z,33.60
2017-10-10T06:37:02.622Z,33.60
2017-10-10T06:39:31.532Z,32.57
2017-10-10T06:41:59.705Z,29.80
2017-10-10T06:44:28.375Z,33.63
2017-10-10T06:46:57.264Z,27.80
2017-10-10T06:49:26.294Z,33.77
2017-10-10T06:51:55.922Z,31.33
2017-10-10T06:54:24.153Z,35.50
2017-10-10T06:56:53.030Z,31.27
2017-10-10T06:59:21.343Z,31.03
2017-10-10T07:01:49.456Z,29.10
2017-10-10T07:04:19.523Z,30.20
2017-10-10T07:06:47.963Z,35.20
2017-10-10T07:09:16.084Z,34.33
2017-10-10T07:11:46.630Z,37.10
2017-10-10T07:14:16.812Z,30.97
2017-10-10T07:16:46.218Z,32.33
2017-10-10T07:19:18.883Z,33.77
2017-10-10T07:21:47.809Z,36.50
2017-10-10T07:24:16.972Z,35.13
2017-10-10T07:26:45.891Z,33.00
2017-10-10T07:29:14.011Z,33.23
2017-10-10T07:31:43.062Z,31.10
2017-10-10T07:34:11.171Z,35.00
2017-10-10T07:36:39.808Z,33.43
2017-10-10T07:39:07.935Z,35.77
2017-10-10T07:41:36.065Z,35.43
2017-10-10T07:44:04.195Z,36.80
2017-10-10T07:46:33.613Z,37.10
2017-10-10T07:49:03.250Z,34.43
2017-10-10T07:51:31.782Z,32.60
2017-10-10T07:53:59.914Z,39.10
2017-10-10T07:56:28.060Z,37.30
2017-10-10T07:58:57.805Z,35.00
2017-10-10T08:01:26.023Z,34.40
2017-10-10T08:03:56.032Z,39.83
2017-10-10T08:06:24.175Z,39.67
2017-10-10T08:08:52.306Z,36.03
2017-10-10T08:11:23.571Z,42.60
2017-10-10T08:13:54.145Z,41.60
2017-10-10T08:16:23.068Z,36.93
2017-10-10T08:18:51.967Z,41.90
2017-10-10T08:21:20.882Z,38.70
2017-10-10T08:23:49.224Z,36.27
2017-10-10T08:26:18.099Z,38.43
2017-10-10T08:28:46.249Z,39.13
2017-10-10T08:31:14.372Z,31.60
2017-10-10T08:33:43.900Z,34.33
2017-10-10T08:36:12.045Z,36.53
2017-10-10T08:38:41.381Z,32.67
2017-10-10T08:41:09.667Z,35.93
2017-10-10T08:43:37.821Z,36.93
2017-10-10T08:46:06.000Z,37.40
2017-10-10T08:48:34.146Z,32.63
2017-10-10T08:51:03.136Z,36.73
2017-10-10T08:53:32.062Z,33.30
2017-10-10T08:56:00.202Z,49.07
2017-10-10T08:58:29.136Z,34.10
2017-10-10T09:00:57.817Z,32.30
2017-10-10T09:03:25.969Z,35.70
2017-10-10T09:05:54.087Z,37.73
2017-10-10T09:08:22.217Z,34.83
2017-10-10T09:10:50.340Z,47.60
2017-10-10T09:13:18.490Z,38.93
2017-10-10T09:15:46.599Z,35.37
2017-10-10T09:18:14.751Z,31.97
2017-10-10T09:20:42.859Z,34.67
2017-10-10T09:23:11.786Z,31.70
2017-10-10T09:25:41.151Z,29.40
2017-10-10T09:28:10.027Z,33.40
2017-10-10T09:30:38.160Z,32.83
2017-10-10T09:33:07.564Z,26.90
2017-10-10T09:35:36.168Z,28.23
2017-10-10T09:38:05.100Z,28.67
2017-10-10T09:40:35.420Z,26.30
2017-10-10T09:43:04.293Z,22.90
2017-10-10T09:45:32.985Z,31.07
2017-10-10T09:48:01.105Z,21.70
2017-10-10T09:50:29.239Z,20.93
2017-10-10T09:52:57.358Z,19.03
2017-10-10T09:55:25.504Z,18.97
2017-10-10T09:57:53.621Z,19.03
2017-10-10T10:00:21.767Z,17.67
2017-10-10T10:02:49.888Z,19.60
2017-10-10T10:05:18.038Z,19.40
2017-10-10T10:07:46.162Z,19.50
2017-10-10T10:10:16.157Z,21.50
2017-10-10T10:12:44.278Z,20.70
2017-10-10T10:15:12.417Z,16.70
2017-10-10T10:17:41.299Z,15.77
2017-10-10T10:20:10.235Z,16.57
2017-10-10T10:22:38.350Z,23.70
2017-10-10T10:25:06.516Z,17.43
2017-10-10T10:27:34.662Z,16.30
2017-10-10T10:30:04.091Z,20.87
2017-10-10T10:32:32.215Z,22.67
2017-10-10T10:35:00.402Z,24.97
2017-10-10T10:37:29.638Z,21.30
2017-10-10T10:39:57.744Z,24.57
2017-10-10T10:42:26.659Z,22.43
2017-10-10T10:44:54.774Z,24.47
2017-10-10T10:47:22.928Z,25.53
2017-10-10T10:49:52.379Z,23.47
2017-10-10T10:52:24.471Z,27.80
2017-10-10T10:54:52.586Z,26.87
2017-10-10T10:57:20.727Z,31.80
2017-10-10T10:59:48.835Z,34.40
2017-10-10T11:02:16.972Z,35.20
2017-10-10T11:04:46.576Z,33.40
2017-10-10T11:07:14.713Z,41.27
2017-10-10T11:09:42.818Z,38.03
2017-10-10T11:12:10.952Z,41.97
2017-10-10T11:14:39.078Z,40.03
2017-10-10T11:17:07.238Z,43.20
2017-10-10T11:19:35.376Z,44.63
2017-10-10T11:22:03.514Z,39.57
2017-10-10T11:24:31.666Z,41.07
2017-10-10T11:27:00.704Z,37.13
2017-10-10T11:29:28.820Z,41.07
2017-10-10T11:31:56.956Z,40.23
2017-10-10T11:34:25.090Z,40.83
2017-10-10T11:36:53.278Z,37.77
2017-10-10T11:39:21.414Z,46.80
2017-10-10T11:41:50.834Z,42.63
2017-10-10T11:44:18.948Z,44.00
2017-10-10T11:46:47.130Z,42.43
2017-10-10T11:49:16.028Z,44.80
2017-10-10T11:51:45.933Z,43.10
2017-10-10T11:54:14.074Z,41.13
2017-10-10T11:56:42.219Z,42.67
2017-10-10T11:59:10.385Z,39.83
2017-10-10T12:01:39.674Z,39.90
2017-10-10T12:04:08.578Z,37.87
2017-10-10T12:06:37.344Z,39.83
2017-10-10T12:09:06.254Z,36.40
2017-10-10T12:11:34.389Z,38.67
2017-10-10T12:14:02.536Z,38.63
2017-10-10T12:16:30.662Z,44.77
2017-10-10T12:18:59.573Z,38.57
2017-10-10T12:21:27.693Z,37.57
2017-10-10T12:23:55.910Z,37.60
2017-10-10T12:26:24.022Z,37.00
2017-10-10T12:28:52.520Z,36.67
2017-10-10T12:31:21.315Z,37.83
2017-10-10T12:33:49.488Z,35.47
2017-10-10T12:36:17.622Z,36.07
2017-10-10T12:38:45.775Z,36.73
2017-10-10T12:41:15.177Z,34.70
2017-10-10T12:43:45.296Z,38.27
2017-10-10T12:46:14.813Z,39.23
2017-10-10T12:48:43.389Z,45.20
2017-10-10T12:51:12.488Z,41.93
2017-10-10T12:53:40.624Z,43.83
2017-10-10T12:56:09.220Z,40.90
2017-10-10T12:58:39.381Z,45.27
2017-10-10T13:01:08.875Z,45.30
2017-10-10T13:03:37.020Z,43.17
2017-10-10T13:06:05.933Z,43.77
2017-10-10T13:08:34.962Z,43.53
2017-10-10T13:11:03.086Z,44.70
2017-10-10T13:13:31.967Z,43.13
2017-10-10T13:16:00.893Z,44.17
2017-10-10T13:18:30.229Z,48.57
2017-10-10T13:20:59.106Z,47.77
2017-10-10T13:23:27.240Z,44.17
2017-10-10T13:25:56.647Z,41.23
2017-10-10T13:28:24.775Z,44.33
2017-10-10T13:30:52.899Z,44.63
2017-10-10T13:33:21.052Z,46.83
2017-10-10T13:35:52.756Z,42.23
2017-10-10T13:38:20.928Z,43.57
2017-10-10T13:40:51.528Z,41.90
2017-10-10T13:43:20.422Z,43.37
2017-10-10T13:45:49.287Z,44.37
2017-10-10T13:48:18.565Z,45.50
2017-10-10T13:50:48.510Z,44.60
2017-10-10T13:53:17.352Z,43.07
2017-10-10T13:55:46.674Z,48.00
2017-10-10T13:58:15.580Z,43.57
2017-10-10T14:00:45.397Z,49.33
2017-10-10T14:03:14.896Z,44.30
2017-10-10T14:05:44.976Z,45.53
2017-10-10T14:08:14.777Z,44.57
2017-10-10T14:10:44.884Z,43.60
2017-10-10T14:13:12.993Z,43.30
2017-10-10T14:15:41.159Z,41.20
2017-10-10T14:18:09.778Z,48.17
2017-10-10T14:20:37.917Z,43.30
2017-10-10T14:23:07.149Z,42.37
2017-10-10T14:25:36.505Z,38.20
2017-10-10T14:28:07.824Z,45.37
2017-10-10T14:30:35.998Z,42.53
2017-10-10T14:33:04.568Z,45.03
2017-10-10T14:35:34.556Z,47.87
2017-10-10T14:38:03.963Z,38.87
2017-10-10T14:40:32.096Z,39.70
2017-10-10T14:43:00.237Z,43.17
2017-10-10T14:45:28.438Z,48.27
2017-10-10T14:47:57.560Z,42.87
2017-10-10T14:50:25.735Z,44.13
2017-10-10T14:52:55.616Z,40.50
2017-10-10T14:55:24.592Z,43.00
2017-10-10T14:57:53.884Z,39.87
2017-10-10T15:00:23.702Z,39.37
2017-10-10T15:02:52.325Z,45.07
2017-10-10T15:05:21.644Z,40.70
2017-10-10T15:07:49.805Z,43.60
2017-10-10T15:10:19.148Z,42.10
2017-10-10T15:12:48.268Z,41.50
2017-10-10T15:15:17.161Z,42.67
2017-10-10T15:17:46.775Z,42.63
2017-10-10T15:20:15.784Z,43.63
2017-10-10T15:22:44.354Z,52.30
2017-10-10T15:25:12.954Z,38.93
2017-10-10T15:27:41.150Z,41.17
2017-10-10T15:30:09.775Z,47.43
2017-10-10T15:32:38.686Z,41.00
2017-10-10T15:35:07.628Z,40.77
2017-10-10T15:37:36.311Z,40.03
2017-10-10T15:40:05.646Z,36.07
2017-10-10T15:42:34.559Z,38.50
2017-10-10T15:45:02.691Z,36.13
2017-10-10T15:47:30.849Z,42.30
2017-10-10T15:49:58.974Z,38.70
2017-10-10T15:52:27.133Z,47.37
2017-10-10T15:54:56.034Z,45.30
2017-10-10T15:57:24.227Z,42.47
2017-10-10T15:59:52.336Z,44.33
2017-10-10T16:02:20.487Z,40.57
2017-10-10T16:04:48.716Z,37.43
2017-10-10T16:07:17.633Z,36.97
2017-10-10T16:09:45.776Z,37.97
2017-10-10T16:12:13.927Z,40.00
2017-10-10T16:14:42.053Z,38.73
2017-10-10T16:17:11.424Z,32.00
2017-10-10T16:19:39.540Z,35.77
2017-10-10T16:22:07.687Z,37.43
2017-10-10T16:24:35.845Z,32.87
2017-10-10T16:27:04.747Z,34.67
2017-10-10T16:29:37.302Z,31.97
2017-10-10T16:32:05.462Z,34.73
2017-10-10T16:34:33.789Z,37.20
2017-10-10T16:37:02.383Z,38.93
2017-10-10T16:39:31.065Z,35.53
2017-10-10T16:41:59.734Z,36.57
2017-10-10T16:44:27.879Z,35.13
2017-10-10T16:46:57.818Z,52.20
2017-10-10T16:49:26.715Z,42.90
2017-10-10T16:51:55.634Z,38.73
2017-10-10T16:54:25.803Z,40.10
2017-10-10T16:56:54.580Z,44.03
2017-10-10T16:59:24.080Z,65.20
2017-10-10T17:01:53.583Z,41.80
2017-10-10T17:04:23.084Z,48.73
2017-10-10T17:06:51.983Z,44.73
2017-10-10T17:09:21.404Z,45.57
2017-10-10T17:11:50.972Z,41.00
2017-10-10T17:14:20.458Z,72.13
2017-10-10T17:16:48.956Z,44.50
2017-10-10T17:19:19.945Z,49.20
2017-10-10T17:21:49.535Z,90.30
2017-10-10T17:24:18.880Z,194.73
2017-10-10T17:26:49.267Z,30.20
2017-10-10T17:29:18.480Z,48.03
2017-10-10T17:31:47.377Z,27.50
2017-10-10T17:34:17.796Z,22.20
2017-10-10T17:36:46.700Z,22.57
2017-10-10T17:39:15.605Z,24.17
2017-10-10T17:41:50.840Z,24.70
2017-10-10T17:44:23.027Z,23.67
2017-10-10T17:46:51.148Z,19.80
2017-10-10T17:49:21.309Z,20.10
2017-10-10T17:51:49.429Z,24.70
2017-10-10T17:54:18.280Z,23.87
2017-10-10T17:56:46.410Z,22.87
2017-10-10T17:59:16.264Z,21.23
2017-10-10T18:01:44.376Z,21.10
2017-10-10T18:04:12.989Z,18.20
2017-10-10T18:06:41.917Z,17.17
2017-10-10T18:09:12.113Z,16.30
2017-10-10T18:11:41.591Z,18.47
2017-10-10T18:14:11.918Z,18.27
2017-10-10T18:16:42.327Z,20.03
2017-10-10T18:19:10.462Z,18.40
2017-10-10T18:21:40.767Z,15.47
2017-10-10T18:24:12.041Z,24.20
2017-10-10T18:26:41.372Z,13.40
2017-10-10T18:29:09.514Z,13.90
2017-10-10T18:31:37.631Z,14.17
2017-10-10T18:34:05.942Z,12.13
2017-10-10T18:36:34.062Z,15.10
2017-10-10T18:39:04.326Z,14.53
2017-10-10T18:41:33.691Z,13.83
2017-10-10T18:44:06.131Z,15.87
2017-10-10T18:46:35.813Z,12.50
2017-10-10T18:49:06.323Z,11.80
2017-10-10T18:51:36.095Z,14.20
2017-10-10T18:54:04.361Z,12.17
2017-10-10T18:56:33.694Z,11.93
2017-10-10T18:59:01.820Z,13.07
2017-10-10T19:01:30.077Z,12.20
2017-10-10T19:04:00.406Z,12.33
2017-10-10T19:06:29.302Z,14.90
2017-10-10T19:08:58.307Z,15.30
2017-10-10T19:11:27.802Z,14.27
2017-10-10T19:13:57.212Z,14.33
2017-10-10T19:16:26.729Z,19.33
2017-10-10T19:18:55.277Z,15.67
2017-10-10T19:21:23.409Z,19.97
2017-10-10T19:23:52.638Z,18.47
2017-10-10T19:26:21.084Z,16.80
2017-10-10T19:28:50.119Z,19.03
2017-10-10T19:31:19.129Z,20.40
2017-10-10T19:33:51.864Z,19.40
2017-10-10T19:36:22.501Z,19.50
2017-10-10T19:38:52.471Z,19.33
2017-10-10T19:41:21.659Z,18.53
2017-10-10T19:43:50.543Z,26.30
2017-10-10T19:46:21.279Z,22.97
2017-10-10T19:48:51.569Z,22.90
2017-10-10T19:51:20.722Z,24.10
2017-10-10T19:53:48.899Z,22.37
2017-10-10T19:56:17.509Z,23.77
2017-10-10T19:58:45.628Z,26.73
2017-10-10T20:01:14.550Z,30.77
2017-10-10T20:03:42.707Z,31.23
2017-10-10T20:06:12.067Z,35.03
2017-10-10T20:08:43.102Z,30.27
2017-10-10T20:11:12.050Z,33.03
2017-10-10T20:13:40.165Z,33.40
2017-10-10T20:16:09.535Z,31.60
2017-10-10T20:18:37.648Z,32.77
2017-10-10T20:21:07.828Z,33.83
2017-10-10T20:23:36.025Z,44.93
2017-10-10T20:26:04.249Z,33.00
2017-10-10T20:28:34.060Z,31.83
2017-10-10T20:31:02.946Z,30.37
2017-10-10T20:33:32.049Z,37.40
2017-10-10T20:36:06.110Z,30.60
2017-10-10T20:38:34.398Z,36.00
2017-10-10T20:41:02.742Z,33.30
2017-10-10T20:43:30.925Z,33.30
2017-10-10T20:46:01.010Z,39.80
2017-10-10T20:48:29.936Z,37.13
2017-10-10T20:51:00.128Z,38.47
2017-10-10T20:53:34.589Z,31.50
2017-10-10T20:56:05.171Z,34.40
2017-10-10T20:58:35.386Z,36.13
2017-10-10T21:01:06.346Z,36.63
2017-10-10T21:03:37.592Z,32.20
2017-10-10T21:06:07.187Z,36.83
2017-10-10T21:08:42.058Z,39.63
2017-10-10T21:11:10.198Z,33.73
2017-10-10T21:13:40.017Z,36.57
2017-10-10T21:16:15.271Z,36.87
2017-10-10T21:18:43.413Z,33.00
2017-10-10T21:21:13.582Z,35.90
2017-10-10T21:23:42.736Z,37.63
2017-10-10T21:26:12.603Z,37.40
2017-10-10T21:28:41.752Z,34.37
2017-10-10T21:31:14.748Z,33.03
2017-10-10T21:36:18.555Z,29.90
2017-10-10T21:38:47.461Z,33.77
2017-10-10T21:41:17.869Z,29.23
2017-10-10T21:43:47.300Z,35.80
2017-10-10T21:46:18.653Z,28.07
2017-10-10T21:48:46.908Z,27.13
2017-10-10T21:51:15.833Z,23.93
2017-10-10T21:53:46.456Z,24.80
2017-10-10T21:56:16.759Z,24.70
2017-10-10T21:58:52.287Z,22.80
2017-10-10T22:01:20.446Z,28.33
2017-10-10T22:03:48.557Z,22.60
2017-10-10T22:06:16.718Z,26.17
2017-10-10T22:08:47.123Z,24.67
2017-10-10T22:11:17.486Z,27.60
2017-10-10T22:13:50.223Z,32.40
2017-10-10T22:16:22.383Z,24.67
2017-10-10T22:18:52.250Z,30.73
2017-10-10T22:21:23.613Z,23.73
2017-10-10T22:23:52.645Z,26.03
2017-10-10T22:26:20.772Z,21.40
2017-10-10T22:28:50.772Z,22.93
2017-10-10T22:31:25.544Z,21.40
2017-10-10T22:33:53.670Z,26.70
2017-10-10T22:36:28.403Z,26.37
2017-10-10T22:38:56.552Z,23.37
2017-10-10T22:41:26.721Z,23.07
2017-10-10T22:43:54.842Z,23.53
2017-10-10T22:46:23.023Z,22.97
2017-10-10T22:48:52.960Z,23.60
2017-10-10T22:51:21.979Z,26.37
2017-10-10T22:53:50.538Z,23.70
2017-10-10T22:56:19.458Z,20.30
2017-10-10T22:58:48.825Z,21.27
2017-10-10T23:01:18.447Z,25.67
2017-10-10T23:03:46.568Z,22.90
2017-10-10T23:06:15.539Z,21.83
2017-10-10T23:08:46.339Z,27.53
2017-10-10T23:11:16.194Z,23.77
2017-10-10T23:13:44.344Z,21.10
2017-10-10T23:16:15.321Z,20.30
2017-10-10T23:18:44.498Z,21.80
2017-10-10T23:21:15.613Z,20.50
2017-10-10T23:23:46.545Z,26.10
2017-10-10T23:26:17.073Z,27.17
2017-10-10T23:28:45.677Z,22.27
2017-10-10T23:31:15.452Z,20.97
2017-10-10T23:33:47.866Z,20.63
2017-10-10T23:36:15.996Z,19.53
2017-10-10T23:38:44.612Z,21.43
2017-10-10T23:41:14.324Z,26.03
2017-10-10T23:43:42.501Z,29.83
2017-10-10T23:46:10.636Z,25.43
2017-10-10T23:48:38.772Z,20.40
2017-10-10T23:51:10.542Z,22.00
2017-10-10T23:53:41.224Z,26.17
2017-10-10T23:56:09.812Z,26.03
2017-10-10T23:58:38.721Z,25.03
